Pelham, NH (03076)

11:12 AM EST on December 09, 2016 (GMT -0500)
Independence Dr | | Change Station

Elev 180 ft 42.74 °N, 71.34 °W | Updated 6 seconds ago

Partly Cloudy
Partly Cloudy
32.0 °F
Feels Like 28 °F
N
4.0
Wind Variable Wind from NW
Gusts 13.0 mph

Today
High -- | Low -- °F
--% Chance of Precip.
Yesterday
High -- | Low -- °F
Precip. -- in
Pressure 29.95 in
Visibility 10.0 miles
Clouds Few 4800 ft
Windchill 28 °F
Dew Point 17 °F
Humidity 53%
Rainfall 0.00 in
Snow Depth Not available.
7:04 AM 4:11 PM
Waxing Gibbous, 75% visible
METAR KLWM 091554Z 29013G24KT 10SM FEW048 01/M11 A2994 RMK AO2 SLP141 T00111106
Pressure 29.95 in
Visibility 10.0 miles
Clouds Few 4800 ft
Windchill 28 °F
Dew Point 17 °F
Humidity 53%
Rainfall 0.00 in
Snow Depth Not available.
7:04 AM 4:11 PM
Waxing Gibbous, 75% visible
METAR KLWM 091554Z 29013G24KT 10SM FEW048 01/M11 A2994 RMK AO2 SLP141 T00111106

10-Day Weather Forecast

Almanac

Astronomy

Dec. 09, 2016 Rise Set
Actual Time
Civil Twilight
Nautical Twilight
Astronomical Twilight
Moon
Length of Visible Light
Length of Day
Tomorrow will be .
, % of the Moon is Illuminated

Today's Extremes

State Highs State Lows

Community

WunderPhotos

Upload Photos

1,956,462 photos uploaded!

WunderBlog® & News

Nearby

Air Quality

  Air Quality AQ Index Pollutant
Not available.

Snow Depth

Station Depth Elevation

Earthquake Activity

City Distance Mag. Time & Date
Minimum magnitude displayed is 2.5.

Coastal Water Temperatures

Place Temperature

Stations

Nearby Weather Stations

Station Location Temp. Windchill Dew Point Humidity Wind Precip. Elev Updated Type
                   

Watches & Warnings

There are currently no watches in effect.